createdAt,value
2023-02-12T00:01:25.566Z,77.27
2023-02-12T00:03:53.554Z,77.19
2023-02-12T00:06:21.392Z,76.95
2023-02-12T00:08:51.354Z,76.67
2023-02-12T00:11:22.676Z,76.29
2023-02-12T00:13:50.842Z,75.88
2023-02-12T00:16:22.190Z,75.81
2023-02-12T00:18:52.977Z,75.94
2023-02-12T00:21:22.391Z,76.14
2023-02-12T00:23:50.158Z,76.22
2023-02-12T00:26:20.548Z,76.25
2023-02-12T00:28:50.654Z,76.35
2023-02-12T00:31:22.284Z,76.55
2023-02-12T00:33:50.901Z,76.71
2023-02-12T00:36:24.707Z,76.87
2023-02-12T00:38:54.444Z,76.96
2023-02-12T00:41:22.882Z,76.99
2023-02-12T00:43:51.163Z,77.07
2023-02-12T00:46:19.265Z,77.13
2023-02-12T00:48:47.166Z,77.16
2023-02-12T00:51:15.065Z,77.25
2023-02-12T00:53:42.901Z,77.22
2023-02-12T00:56:10.799Z,77.27
2023-02-12T00:58:38.602Z,77.32
2023-02-12T01:01:08.014Z,77.31
2023-02-12T01:03:36.934Z,77.30
2023-02-12T01:06:05.971Z,77.31
2023-02-12T01:08:33.747Z,77.42
2023-02-12T01:11:03.786Z,77.54
2023-02-12T01:13:33.708Z,77.65
2023-02-12T01:16:16.424Z,77.78
2023-02-12T01:18:45.307Z,77.89
2023-02-12T01:21:19.243Z,77.92
2023-02-12T01:23:47.307Z,77.87
2023-02-12T01:26:17.022Z,77.72
2023-02-12T01:28:48.775Z,77.82
2023-02-12T01:31:19.306Z,77.70
2023-02-12T01:33:52.283Z,77.67
2023-02-12T01:36:20.503Z,77.61
2023-02-12T01:38:50.165Z,77.51
2023-02-12T01:41:30.047Z,77.49
2023-02-12T01:44:30.908Z,77.29
2023-02-12T01:47:01.422Z,76.83
2023-02-12T01:49:37.909Z,76.24
2023-02-12T01:52:20.161Z,76.20
2023-02-12T01:54:50.372Z,76.13
2023-02-12T01:57:19.048Z,76.03
2023-02-12T01:59:51.200Z,75.88
2023-02-12T02:02:19.380Z,75.70
2023-02-12T02:04:54.602Z,75.57
2023-02-12T02:07:22.372Z,75.74
2023-02-12T02:09:50.822Z,75.80
2023-02-12T02:12:37.187Z,75.83
2023-02-12T02:15:06.153Z,75.94
2023-02-12T02:17:39.932Z,76.05
2023-02-12T02:20:26.074Z,76.13
2023-02-12T02:23:12.075Z,76.00
2023-02-12T02:26:01.181Z,75.65
2023-02-12T02:28:44.092Z,75.25
2023-02-12T02:31:35.455Z,75.00
2023-02-12T02:34:28.202Z,75.11
2023-02-12T02:37:04.018Z,75.15
2023-02-12T02:39:40.037Z,75.16
2023-02-12T02:42:10.815Z,75.18
2023-02-12T02:44:47.285Z,75.38
2023-02-12T02:47:19.150Z,75.45
2023-02-12T02:49:56.207Z,75.49
2023-02-12T02:52:37.349Z,75.72
2023-02-12T02:55:11.202Z,75.75
2023-02-12T02:57:46.581Z,75.65
2023-02-12T03:00:22.271Z,75.47
2023-02-12T03:02:52.809Z,75.21
2023-02-12T03:05:30.073Z,75.16
2023-02-12T03:08:12.440Z,75.14
2023-02-12T03:10:45.782Z,75.33
2023-02-12T03:13:26.566Z,75.36
2023-02-12T03:16:06.377Z,75.34
2023-02-12T03:18:41.620Z,75.39
2023-02-12T03:21:17.940Z,75.51
2023-02-12T03:24:01.028Z,75.59
2023-02-12T03:26:42.442Z,75.84
2023-02-12T03:29:10.434Z,75.92
2023-02-12T03:32:09.721Z,75.98
2023-02-12T03:35:06.699Z,76.05
2023-02-12T03:37:43.710Z,76.12
2023-02-12T03:40:16.268Z,76.14
2023-02-12T03:43:20.793Z,76.14
2023-02-12T03:46:13.515Z,76.22
2023-02-12T03:48:56.722Z,76.12
2023-02-12T03:51:34.583Z,76.19
2023-02-12T03:54:04.390Z,76.30
2023-02-12T03:56:39.664Z,76.24
2023-02-12T03:59:07.618Z,76.31
2023-02-12T04:01:36.551Z,76.32
2023-02-12T04:04:06.796Z,76.50
2023-02-12T04:06:35.379Z,76.36
2023-02-12T04:09:09.596Z,76.19
2023-02-12T04:11:59.158Z,76.11
2023-02-12T04:14:31.410Z,76.07
2023-02-12T04:17:08.967Z,75.99
2023-02-12T04:20:10.446Z,75.97
2023-02-12T04:22:50.170Z,75.86
2023-02-12T04:25:39.415Z,75.83
2023-02-12T04:28:29.544Z,75.78
2023-02-12T04:31:07.948Z,75.81
2023-02-12T04:33:47.344Z,75.91
2023-02-12T04:36:23.736Z,76.18
2023-02-12T04:38:55.532Z,76.30
2023-02-12T04:41:25.691Z,76.25
2023-02-12T04:43:53.468Z,76.40
2023-02-12T04:46:21.190Z,77.34
2023-02-12T04:48:58.625Z,79.41
2023-02-12T04:51:26.500Z,77.87
2023-02-12T04:53:54.243Z,75.73
2023-02-12T04:56:21.948Z,73.00
2023-02-12T04:58:50.527Z,70.51
2023-02-12T05:01:18.292Z,68.78
2023-02-12T05:03:46.192Z,67.07
2023-02-12T05:06:13.992Z,66.17
2023-02-12T05:08:41.701Z,65.36
2023-02-12T05:11:10.353Z,65.18
2023-02-12T05:13:38.272Z,65.48
2023-02-12T05:16:07.360Z,64.65
2023-02-12T05:18:35.800Z,65.57
2023-02-12T05:21:05.602Z,66.58
2023-02-12T05:23:34.717Z,65.26
2023-02-12T05:26:05.783Z,65.30
2023-02-12T05:28:33.602Z,63.61
2023-02-12T05:31:03.548Z,62.86
2023-02-12T05:33:32.155Z,63.53
2023-02-12T05:36:10.837Z,63.42
2023-02-12T05:38:38.701Z,65.45
2023-02-12T05:41:15.160Z,65.18
2023-02-12T05:43:43.241Z,63.47
2023-02-12T05:46:12.158Z,62.27
2023-02-12T05:48:40.386Z,61.45
2023-02-12T05:51:11.967Z,62.16
2023-02-12T05:53:41.065Z,61.15
2023-02-12T05:56:11.976Z,60.24
2023-02-12T05:58:41.728Z,60.97
2023-02-12T06:01:14.269Z,61.19
2023-02-12T06:03:42.751Z,61.24
2023-02-12T06:06:10.912Z,61.47
2023-02-12T06:08:39.352Z,61.91
2023-02-12T06:11:11.022Z,62.68
2023-02-12T06:13:38.779Z,64.83
2023-02-12T06:16:07.001Z,65.15
2023-02-12T06:18:37.929Z,64.35
2023-02-12T06:21:06.104Z,62.90
2023-02-12T06:23:33.876Z,61.77
2023-02-12T06:26:01.566Z,61.40
2023-02-12T06:28:29.385Z,59.43
2023-02-12T06:30:57.246Z,57.00
2023-02-12T06:33:25.021Z,57.95
2023-02-12T06:35:52.889Z,59.26
2023-02-12T06:38:20.797Z,60.54
2023-02-12T06:40:48.754Z,61.75
2023-02-12T06:43:16.550Z,63.51
2023-02-12T06:45:44.400Z,65.21
2023-02-12T06:48:12.128Z,63.74
2023-02-12T06:50:39.824Z,63.10
2023-02-12T06:53:07.584Z,62.99
2023-02-12T06:55:35.363Z,61.51
2023-02-12T06:58:03.151Z,60.07
2023-02-12T07:00:30.925Z,58.43
2023-02-12T07:02:58.856Z,57.66
2023-02-12T07:05:26.752Z,58.61
2023-02-12T07:07:54.553Z,59.20
2023-02-12T07:10:22.254Z,59.79
2023-02-12T07:12:49.946Z,60.27
2023-02-12T07:15:17.698Z,60.71
2023-02-12T07:17:45.532Z,61.36
2023-02-12T07:20:13.592Z,64.01
2023-02-12T07:22:41.430Z,65.86
2023-02-12T07:25:09.302Z,65.35
2023-02-12T07:27:38.110Z,64.29
2023-02-12T07:30:07.456Z,63.31
2023-02-12T07:32:35.596Z,62.10
2023-02-12T07:35:03.434Z,61.49
2023-02-12T07:37:31.224Z,61.58
2023-02-12T07:39:58.953Z,61.32
2023-02-12T07:42:26.709Z,61.60
2023-02-12T07:44:54.400Z,59.47
2023-02-12T07:47:22.276Z,57.81
2023-02-12T07:49:50.139Z,58.32
2023-02-12T07:52:17.976Z,58.66
2023-02-12T07:54:45.750Z,59.80
2023-02-12T07:57:13.545Z,60.84
2023-02-12T07:59:41.308Z,60.36
2023-02-12T08:02:09.844Z,60.48
2023-02-12T08:04:37.717Z,60.41
2023-02-12T08:07:05.652Z,60.89
2023-02-12T08:09:33.410Z,63.21
2023-02-12T08:12:01.150Z,64.64
2023-02-12T08:14:29.301Z,63.08
2023-02-12T08:16:57.343Z,60.51
2023-02-12T08:19:26.826Z,57.70
2023-02-12T08:21:56.977Z,56.31
2023-02-12T08:24:25.639Z,55.23
2023-02-12T08:26:53.780Z,55.36
2023-02-12T08:29:25.586Z,56.91
2023-02-12T08:31:59.143Z,59.52
2023-02-12T08:34:29.607Z,60.45
2023-02-12T08:36:58.098Z,61.45
2023-02-12T08:39:28.764Z,63.26
2023-02-12T08:41:58.623Z,63.61
2023-02-12T08:44:26.609Z,63.53
2023-02-12T08:46:55.763Z,60.38
2023-02-12T08:49:26.768Z,60.84
2023-02-12T08:51:56.683Z,58.97
2023-02-12T08:54:26.949Z,57.75
2023-02-12T08:56:56.759Z,55.34
2023-02-12T08:59:24.977Z,53.67
2023-02-12T09:01:53.745Z,52.67
2023-02-12T09:04:27.354Z,51.94
2023-02-12T09:06:55.808Z,55.07
2023-02-12T09:09:23.617Z,56.90
2023-02-12T09:11:51.556Z,57.38
2023-02-12T09:14:26.045Z,54.19
2023-02-12T09:16:55.034Z,57.54
2023-02-12T09:19:23.144Z,57.56
2023-02-12T09:21:55.569Z,56.17
2023-02-12T09:24:25.641Z,55.98
2023-02-12T09:26:53.464Z,52.29
2023-02-12T09:29:21.371Z,51.47
2023-02-12T09:31:49.218Z,50.68
2023-02-12T09:34:17.216Z,50.75
2023-02-12T09:36:45.053Z,48.50
2023-02-12T09:39:12.823Z,46.80
2023-02-12T09:41:59.019Z,48.48
2023-02-12T09:44:26.758Z,50.68
2023-02-12T09:47:17.714Z,50.28
2023-02-12T09:50:23.893Z,48.60
2023-02-12T09:52:54.723Z,49.52
2023-02-12T09:55:29.357Z,50.71
2023-02-12T09:57:57.377Z,50.94
2023-02-12T10:00:29.063Z,50.60
2023-02-12T10:03:01.732Z,48.29
2023-02-12T10:05:43.303Z,48.52
2023-02-12T10:08:14.290Z,47.60
2023-02-12T10:10:53.354Z,49.53
2023-02-12T10:13:39.333Z,49.71
2023-02-12T10:16:20.502Z,49.81
2023-02-12T10:18:59.940Z,48.37
2023-02-12T10:22:12.564Z,45.73
2023-02-12T10:24:52.192Z,47.27
2023-02-12T10:27:38.199Z,46.59
2023-02-12T10:30:49.947Z,47.06
2023-02-12T10:33:26.909Z,47.61
2023-02-12T10:36:02.297Z,47.63
2023-02-12T10:38:36.432Z,46.41
2023-02-12T10:41:04.235Z,46.52
2023-02-12T10:43:32.567Z,47.26
2023-02-12T10:46:00.291Z,46.30
2023-02-12T10:48:36.932Z,45.92
2023-02-12T10:51:07.678Z,45.25
2023-02-12T10:53:38.600Z,45.19
2023-02-12T10:56:17.442Z,46.58
2023-02-12T10:58:59.716Z,45.84
2023-02-12T11:01:28.754Z,46.39
2023-02-12T11:03:58.817Z,47.61
2023-02-12T11:06:29.875Z,47.12
2023-02-12T11:08:59.112Z,46.58
2023-02-12T11:11:31.472Z,45.89
2023-02-12T11:14:16.817Z,45.53
2023-02-12T11:16:56.803Z,45.40
2023-02-12T11:19:30.456Z,46.14
2023-02-12T11:22:11.263Z,46.05
2023-02-12T11:24:39.020Z,45.64
2023-02-12T11:27:15.617Z,45.24
2023-02-12T11:29:44.604Z,44.75
2023-02-12T11:32:18.469Z,45.06
2023-02-12T11:35:14.935Z,45.02
2023-02-12T11:37:44.760Z,45.03
2023-02-12T11:40:25.478Z,44.89
2023-02-12T11:42:59.398Z,44.80
2023-02-12T11:45:34.570Z,45.06
2023-02-12T11:48:03.041Z,45.41
2023-02-12T11:50:35.178Z,45.42
2023-02-12T11:53:09.442Z,45.60
2023-02-12T11:55:40.934Z,45.68
2023-02-12T11:58:20.831Z,45.61
2023-02-12T12:01:20.304Z,45.96
2023-02-12T12:04:09.972Z,46.16
2023-02-12T12:06:44.420Z,46.61
2023-02-12T12:09:29.128Z,46.73
2023-02-12T12:12:03.004Z,47.54
2023-02-12T12:15:01.058Z,48.35
2023-02-12T12:18:04.348Z,48.26
2023-02-12T12:20:39.231Z,47.96
2023-02-12T12:23:17.421Z,48.57
2023-02-12T12:25:56.156Z,48.79
2023-02-12T12:28:42.057Z,49.07
2023-02-12T12:31:17.305Z,49.52
2023-02-12T12:33:52.972Z,49.43
2023-02-12T12:36:51.905Z,49.94
2023-02-12T12:39:34.918Z,50.15
2023-02-12T12:42:02.699Z,50.31
2023-02-12T12:45:03.196Z,50.47
2023-02-12T12:47:30.785Z,50.57
2023-02-12T12:50:21.993Z,50.92
2023-02-12T12:53:10.035Z,50.82
2023-02-12T12:56:15.153Z,50.90
2023-02-12T12:58:54.476Z,51.41
2023-02-12T13:01:36.364Z,51.85
2023-02-12T13:04:30.759Z,52.35
2023-02-12T13:07:32.603Z,52.79
2023-02-12T13:10:24.413Z,53.16
2023-02-12T13:13:01.366Z,53.66
2023-02-12T13:15:50.904Z,54.31
2023-02-12T13:18:36.746Z,54.16
2023-02-12T13:21:25.645Z,54.51
2023-02-12T13:24:02.558Z,55.00
2023-02-12T13:26:41.458Z,55.80
2023-02-12T13:29:19.107Z,55.73
2023-02-12T13:32:05.455Z,56.40
2023-02-12T13:34:36.715Z,56.41
2023-02-12T13:37:10.123Z,56.85
2023-02-12T13:39:41.601Z,57.30
2023-02-12T13:42:27.456Z,57.78
2023-02-12T13:45:07.715Z,57.74
2023-02-12T13:47:56.853Z,57.89
2023-02-12T13:50:43.264Z,58.16
2023-02-12T13:53:23.695Z,58.46
2023-02-12T13:55:54.618Z,58.50
2023-02-12T13:58:37.830Z,58.66
2023-02-12T14:01:12.563Z,59.38
2023-02-12T14:03:40.893Z,59.50
2023-02-12T14:06:18.113Z,59.37
2023-02-12T14:09:07.723Z,59.60
2023-02-12T14:11:48.571Z,59.97
2023-02-12T14:14:27.871Z,60.03
2023-02-12T14:16:55.634Z,59.99
2023-02-12T14:19:38.608Z,60.17
2023-02-12T14:22:32.844Z,60.32
2023-02-12T14:25:25.466Z,60.67
2023-02-12T14:27:55.432Z,60.81
2023-02-12T14:30:38.332Z,61.07
2023-02-12T14:33:06.736Z,61.17
2023-02-12T14:35:49.591Z,61.34
2023-02-12T14:38:19.805Z,61.48
2023-02-12T14:40:49.378Z,61.87
2023-02-12T14:43:56.973Z,61.82
2023-02-12T14:46:24.789Z,61.78
2023-02-12T14:49:05.913Z,61.90
2023-02-12T14:51:55.606Z,62.94
2023-02-12T14:54:37.086Z,64.14
2023-02-12T14:57:11.680Z,64.14
2023-02-12T14:59:43.580Z,62.89
2023-02-12T15:02:34.540Z,61.83
2023-02-12T15:05:06.857Z,61.06
2023-02-12T15:07:44.605Z,61.02
2023-02-12T15:10:20.262Z,61.10
2023-02-12T15:13:07.748Z,61.22
2023-02-12T15:15:49.306Z,61.36
2023-02-12T15:18:43.113Z,61.18
2023-02-12T15:21:23.037Z,60.95
2023-02-12T15:24:20.442Z,61.10
2023-02-12T15:26:51.690Z,61.58
2023-02-12T15:29:27.469Z,62.03
2023-02-12T15:31:59.032Z,62.65
2023-02-12T15:34:30.362Z,62.64
2023-02-12T15:37:01.828Z,62.68
2023-02-12T15:39:41.786Z,62.76
2023-02-12T15:42:37.908Z,62.97
2023-02-12T15:45:14.950Z,63.16
2023-02-12T15:47:44.919Z,63.54
2023-02-12T15:50:15.241Z,63.85
2023-02-12T15:52:46.416Z,64.02
2023-02-12T15:55:21.815Z,64.38
2023-02-12T15:57:58.477Z,64.81
2023-02-12T16:00:53.480Z,65.33
2023-02-12T16:03:36.297Z,65.30
2023-02-12T16:06:13.786Z,65.35
2023-02-12T16:08:45.604Z,65.59
2023-02-12T16:11:17.246Z,66.61
2023-02-12T16:13:59.427Z,66.86
2023-02-12T16:16:29.241Z,66.21
2023-02-12T16:19:20.388Z,66.56
2023-02-12T16:21:51.723Z,66.87
2023-02-12T16:24:49.557Z,67.00
2023-02-12T16:27:34.531Z,66.92
2023-02-12T16:30:06.184Z,67.00
2023-02-12T16:32:37.959Z,67.16
2023-02-12T16:35:12.097Z,67.59
2023-02-12T16:37:39.878Z,67.87
2023-02-12T16:40:23.116Z,68.33
2023-02-12T16:42:50.862Z,68.73
2023-02-12T16:45:27.703Z,68.51
2023-02-12T16:48:08.637Z,68.58
2023-02-12T16:50:43.471Z,69.00
2023-02-12T16:53:29.958Z,68.94
2023-02-12T16:55:59.054Z,68.85
2023-02-12T16:58:28.526Z,69.06
2023-02-12T17:00:59.352Z,69.19
2023-02-12T17:03:27.515Z,69.69
2023-02-12T17:05:55.857Z,70.04
2023-02-12T17:08:24.408Z,69.74
2023-02-12T17:10:52.419Z,69.65
2023-02-12T17:13:21.046Z,69.99
2023-02-12T17:15:58.309Z,69.98
2023-02-12T17:18:26.472Z,69.92
2023-02-12T17:20:57.789Z,70.23
2023-02-12T17:23:26.309Z,70.25
2023-02-12T17:25:54.820Z,70.23
2023-02-12T17:28:25.032Z,70.25
2023-02-12T17:30:54.069Z,70.36
2023-02-12T17:33:22.763Z,70.56
2023-02-12T17:35:50.558Z,71.13
2023-02-12T17:38:18.500Z,72.65
2023-02-12T17:40:46.316Z,72.02
2023-02-12T17:43:14.037Z,71.44
2023-02-12T17:45:43.372Z,71.27
2023-02-12T17:48:12.605Z,71.28
2023-02-12T17:50:40.905Z,71.49
2023-02-12T17:53:09.789Z,71.59
2023-02-12T17:55:41.333Z,71.77
2023-02-12T17:58:09.072Z,71.96
2023-02-12T18:00:36.874Z,72.20
2023-02-12T18:03:04.619Z,72.49
2023-02-12T18:05:32.506Z,72.76
2023-02-12T18:08:02.254Z,73.14
2023-02-12T18:10:30.088Z,73.44
2023-02-12T18:12:57.811Z,73.63
2023-02-12T18:15:25.516Z,73.88
2023-02-12T18:17:53.327Z,74.12
2023-02-12T18:20:21.238Z,74.34
2023-02-12T18:22:50.219Z,74.39
2023-02-12T18:25:18.964Z,74.75
2023-02-12T18:27:46.825Z,75.19
2023-02-12T18:30:15.120Z,75.80
2023-02-12T18:32:43.692Z,76.38
2023-02-12T18:35:11.657Z,76.80
2023-02-12T18:37:43.258Z,78.59
2023-02-12T18:40:12.148Z,79.07
2023-02-12T18:42:40.068Z,78.51
2023-02-12T18:45:08.369Z,78.22
2023-02-12T18:47:36.443Z,78.26
2023-02-12T18:50:04.563Z,78.33
2023-02-12T18:52:32.829Z,78.35
2023-02-12T18:55:00.749Z,78.18
2023-02-12T18:57:29.862Z,78.13
2023-02-12T18:59:57.707Z,78.20
2023-02-12T19:02:25.680Z,78.26
2023-02-12T19:04:53.798Z,78.32
2023-02-12T19:07:21.645Z,78.52
2023-02-12T19:09:49.754Z,78.63
2023-02-12T19:12:17.518Z,78.70
2023-02-12T19:14:45.734Z,78.75
2023-02-12T19:17:13.598Z,78.77
2023-02-12T19:19:41.478Z,78.83
2023-02-12T19:22:09.208Z,78.79
2023-02-12T19:24:46.166Z,78.49
2023-02-12T19:27:14.647Z,78.62
2023-02-12T19:29:42.380Z,78.80
2023-02-12T19:32:10.350Z,78.92
2023-02-12T19:34:38.365Z,78.96
2023-02-12T19:37:08.986Z,78.96
2023-02-12T19:39:38.019Z,78.99
2023-02-12T19:42:05.780Z,79.13
2023-02-12T19:44:33.565Z,79.25
2023-02-12T19:47:01.379Z,79.31
2023-02-12T19:49:29.242Z,79.28
2023-02-12T19:51:57.099Z,79.39
2023-02-12T19:54:25.270Z,79.25
2023-02-12T19:56:55.212Z,79.49
2023-02-12T19:59:25.395Z,79.70
2023-02-12T20:01:54.040Z,79.95
2023-02-12T20:04:23.802Z,80.20
2023-02-12T20:06:52.386Z,80.14
2023-02-12T20:09:22.084Z,79.76
2023-02-12T20:11:50.761Z,79.98
2023-02-12T20:14:20.811Z,80.30
2023-02-12T20:16:50.407Z,80.49
2023-02-12T20:19:22.965Z,80.89
2023-02-12T20:21:55.331Z,80.98
2023-02-12T20:24:30.972Z,81.00
2023-02-12T20:27:00.972Z,81.07
2023-02-12T20:29:28.956Z,81.22
2023-02-12T20:31:57.256Z,81.51
2023-02-12T20:34:25.203Z,81.61
2023-02-12T20:36:53.952Z,81.54
2023-02-12T20:39:21.998Z,81.44
2023-02-12T20:41:50.129Z,81.44
2023-02-12T20:44:20.577Z,81.45
2023-02-12T20:46:52.504Z,81.43
2023-02-12T20:49:24.497Z,81.63
2023-02-12T20:51:52.749Z,81.91
2023-02-12T20:54:21.170Z,82.17
2023-02-12T20:56:50.359Z,82.40
2023-02-12T20:59:18.972Z,82.52
2023-02-12T21:01:47.498Z,82.66
2023-02-12T21:04:17.796Z,82.45
2023-02-12T21:06:45.954Z,82.45
2023-02-12T21:09:14.909Z,82.57
2023-02-12T21:11:45.683Z,82.71
2023-02-12T21:14:24.007Z,82.85
2023-02-12T21:16:54.681Z,82.86
2023-02-12T21:19:22.531Z,83.04
2023-02-12T21:21:50.266Z,83.16
2023-02-12T21:24:21.577Z,83.36
2023-02-12T21:26:50.826Z,83.31
2023-02-12T21:29:19.474Z,83.41
2023-02-12T21:31:49.643Z,83.52
2023-02-12T21:34:21.177Z,83.66
2023-02-12T21:36:50.401Z,83.90
2023-02-12T21:39:24.882Z,84.25
2023-02-12T21:41:55.525Z,84.20
2023-02-12T21:44:24.744Z,84.46
2023-02-12T21:46:53.102Z,84.70
2023-02-12T21:49:28.268Z,84.91
2023-02-12T21:52:04.426Z,85.06
2023-02-12T21:54:32.426Z,85.31
2023-02-12T21:57:00.739Z,84.98
2023-02-12T21:59:31.758Z,85.31
2023-02-12T22:02:00.768Z,85.68
2023-02-12T22:04:29.240Z,85.88
2023-02-12T22:06:58.230Z,85.94
2023-02-12T22:09:26.165Z,86.31
2023-02-12T22:11:54.148Z,86.65
2023-02-12T22:14:22.602Z,86.95
2023-02-12T22:16:50.810Z,87.11
2023-02-12T22:19:18.708Z,87.16
2023-02-12T22:21:51.271Z,87.13
2023-02-12T22:24:20.015Z,87.22
2023-02-12T22:26:47.913Z,87.36
2023-02-12T22:29:16.274Z,87.31
2023-02-12T22:31:46.055Z,87.16
2023-02-12T22:34:17.073Z,87.30
2023-02-12T22:36:46.925Z,87.49
2023-02-12T22:39:15.380Z,87.31
2023-02-12T22:41:43.266Z,87.11
2023-02-12T22:44:12.982Z,87.03
2023-02-12T22:46:44.110Z,87.36
2023-02-12T22:49:12.000Z,87.30
2023-02-12T22:51:40.460Z,87.49
2023-02-12T22:54:13.921Z,87.13
2023-02-12T22:56:42.090Z,86.85
2023-02-12T22:59:11.114Z,87.17
2023-02-12T23:01:40.011Z,87.24
2023-02-12T23:04:12.454Z,87.20
2023-02-12T23:06:40.296Z,87.31
2023-02-12T23:09:12.622Z,87.47
2023-02-12T23:11:40.544Z,87.86
2023-02-12T23:14:08.367Z,87.86
2023-02-12T23:16:36.170Z,87.92
2023-02-12T23:19:03.954Z,88.14
2023-02-12T23:21:32.565Z,88.30
2023-02-12T23:24:00.458Z,88.28
2023-02-12T23:26:29.600Z,88.38
2023-02-12T23:28:57.658Z,88.40
2023-02-12T23:31:25.976Z,88.51
2023-02-12T23:33:54.066Z,88.68
2023-02-12T23:36:21.949Z,88.75
2023-02-12T23:38:49.696Z,88.87
2023-02-12T23:41:17.754Z,88.93
2023-02-12T23:43:45.654Z,89.03
2023-02-12T23:46:13.438Z,89.11
2023-02-12T23:48:41.322Z,89.26
2023-02-12T23:51:09.272Z,89.42
2023-02-12T23:53:37.110Z,89.41
2023-02-12T23:56:04.996Z,89.47
2023-02-12T23:58:32.711Z,89.51
